Terminal Aerodrome Forecast
Issued by NWS

Home | Current Version | Previous Version | Text Only | Print | Product List | Glossary On
Versions: 1 2 3 4 5 6 7 8 9 10 11 12 13 14 15 16 17 18 19 20
000
FTUS45 KFGZ 010500
TAFPRC
TAF
KPRC 010535Z 0106/0206 24008KT P6SM OVC080
      TEMPO 0106/0108 VRB15G25KT -SHRA
     FM011000 VRB06KT P6SM BKN200
     FM011900 22010KT P6SM SCT080 PROB30 0201/0202 VRB20G30KT -TSRA
      BKN050CB=

USA.gov is the U.S. government's official web portal to all federal, state and local government web resources and services.